createdAt,value
2023-03-22T00:01:24.776Z,86.55
2023-03-22T00:03:52.010Z,86.55
2023-03-22T00:06:18.960Z,86.49
2023-03-22T00:08:50.016Z,86.36
2023-03-22T00:11:17.088Z,86.25
2023-03-22T00:13:46.275Z,86.25
2023-03-22T00:16:16.881Z,86.26
2023-03-22T00:18:43.345Z,86.23
2023-03-22T00:21:16.737Z,86.16
2023-03-22T00:23:44.149Z,86.09
2023-03-22T00:26:13.417Z,86.12
2023-03-22T00:28:40.652Z,86.13
2023-03-22T00:31:08.115Z,86.13
2023-03-22T00:33:35.679Z,86.15
2023-03-22T00:36:08.865Z,86.16
2023-03-22T00:38:42.625Z,86.18
2023-03-22T00:41:15.329Z,86.18
2023-03-22T00:43:42.547Z,86.14
2023-03-22T00:46:11.003Z,86.05
2023-03-22T00:48:37.608Z,86.07
2023-03-22T00:51:04.976Z,86.02
2023-03-22T00:53:35.864Z,85.94
2023-03-22T00:56:03.822Z,85.89
2023-03-22T00:58:30.252Z,85.86
2023-03-22T01:00:56.930Z,85.79
2023-03-22T01:03:23.929Z,85.73
2023-03-22T01:05:54.774Z,85.71
2023-03-22T01:08:22.647Z,85.67
2023-03-22T01:10:49.756Z,85.64
2023-03-22T01:13:17.916Z,85.63
2023-03-22T01:15:47.056Z,85.58
2023-03-22T01:18:16.714Z,85.45
2023-03-22T01:20:43.189Z,85.29
2023-03-22T01:23:09.634Z,85.31
2023-03-22T01:25:36.377Z,85.32
2023-03-22T01:28:02.898Z,85.38
2023-03-22T01:30:29.664Z,85.39
2023-03-22T01:32:56.266Z,85.32
2023-03-22T01:35:22.908Z,85.36
2023-03-22T01:37:49.667Z,85.42
2023-03-22T01:40:16.637Z,85.51
2023-03-22T01:42:43.154Z,85.63
2023-03-22T01:45:12.515Z,85.85
2023-03-22T01:47:43.021Z,85.89
2023-03-22T01:50:09.786Z,85.92
2023-03-22T01:52:36.990Z,85.91
2023-03-22T01:55:05.729Z,85.93
2023-03-22T01:57:36.837Z,85.96
2023-03-22T02:00:12.644Z,85.93
2023-03-22T02:02:39.085Z,85.97
2023-03-22T02:05:05.865Z,86.07
2023-03-22T02:07:32.368Z,86.09
2023-03-22T02:09:59.154Z,86.18
2023-03-22T02:12:28.556Z,86.20
2023-03-22T02:15:24.336Z,86.27
2023-03-22T02:18:30.776Z,86.40
2023-03-22T02:21:56.046Z,86.48
2023-03-22T02:25:01.005Z,86.56
2023-03-22T02:27:34.961Z,86.64
2023-03-22T02:30:23.130Z,86.71
2023-03-22T02:32:52.390Z,86.69
2023-03-22T02:35:33.699Z,86.64
2023-03-22T02:38:32.295Z,86.61
2023-03-22T02:41:21.943Z,86.53
2023-03-22T02:43:48.314Z,86.56
2023-03-22T02:46:38.261Z,86.46
2023-03-22T02:49:35.213Z,86.39
2023-03-22T02:52:19.613Z,86.29
2023-03-22T02:54:54.490Z,86.26
2023-03-22T02:57:37.194Z,86.22
2023-03-22T03:00:10.911Z,86.16
2023-03-22T03:02:41.508Z,86.23
2023-03-22T03:05:10.275Z,86.16
2023-03-22T03:07:38.020Z,86.14
2023-03-22T03:10:05.965Z,86.09
2023-03-22T03:12:32.392Z,86.08
2023-03-22T03:14:58.888Z,86.05
2023-03-22T03:17:33.511Z,86.03
2023-03-22T03:20:18.587Z,85.98
2023-03-22T03:22:50.863Z,85.95
2023-03-22T03:25:30.693Z,85.87
2023-03-22T03:28:15.410Z,85.89
2023-03-22T03:30:55.828Z,85.87
2023-03-22T03:33:26.014Z,85.87
2023-03-22T03:36:00.459Z,85.97
2023-03-22T03:38:31.054Z,86.07
2023-03-22T03:41:01.574Z,86.16
2023-03-22T03:43:28.085Z,86.17
2023-03-22T03:45:55.263Z,86.18
2023-03-22T03:48:26.152Z,86.23
2023-03-22T03:50:53.661Z,86.27
2023-03-22T03:53:20.218Z,86.25
2023-03-22T03:55:46.715Z,86.27
2023-03-22T03:58:15.413Z,86.30
2023-03-22T04:00:42.546Z,86.33
2023-03-22T04:03:09.331Z,86.38
2023-03-22T04:05:36.284Z,86.41
2023-03-22T04:08:02.962Z,86.43
2023-03-22T04:10:29.656Z,86.37
2023-03-22T04:12:56.023Z,86.31
2023-03-22T04:15:23.530Z,86.31
2023-03-22T04:17:51.070Z,86.29
2023-03-22T04:20:17.822Z,86.32
2023-03-22T04:22:46.204Z,86.36
2023-03-22T04:25:13.745Z,86.35
2023-03-22T04:27:41.381Z,86.32
2023-03-22T04:30:11.759Z,86.20
2023-03-22T04:32:39.112Z,86.12
2023-03-22T04:35:05.932Z,86.11
2023-03-22T04:37:33.045Z,86.11
2023-03-22T04:39:59.978Z,86.10
2023-03-22T04:42:26.881Z,86.12
2023-03-22T04:44:53.508Z,86.00
2023-03-22T04:47:20.025Z,85.97
2023-03-22T04:49:47.492Z,86.02
2023-03-22T04:52:14.907Z,85.89
2023-03-22T04:54:41.806Z,85.89
2023-03-22T04:57:08.993Z,86.02
2023-03-22T04:59:35.386Z,86.30
2023-03-22T05:02:02.354Z,86.27
2023-03-22T05:04:28.889Z,86.37
2023-03-22T05:06:55.398Z,86.69
2023-03-22T05:09:23.505Z,86.54
2023-03-22T05:11:50.485Z,86.61
2023-03-22T05:14:16.926Z,86.75
2023-03-22T05:16:43.408Z,86.76
2023-03-22T05:19:15.651Z,87.03
2023-03-22T05:21:43.413Z,87.15
2023-03-22T05:24:10.655Z,87.15
2023-03-22T05:26:41.530Z,86.98
2023-03-22T05:29:10.335Z,86.94
2023-03-22T05:31:37.002Z,86.95
2023-03-22T05:34:03.922Z,86.94
2023-03-22T05:36:30.583Z,87.01
2023-03-22T05:39:04.066Z,87.06
2023-03-22T05:41:31.094Z,87.11
2023-03-22T05:43:57.555Z,87.03
2023-03-22T05:46:54.149Z,86.90
2023-03-22T05:49:21.703Z,86.84
2023-03-22T05:51:50.051Z,86.90
2023-03-22T05:54:16.550Z,87.03
2023-03-22T05:56:43.644Z,87.00
2023-03-22T05:59:10.302Z,87.10
2023-03-22T06:01:37.137Z,87.19
2023-03-22T06:04:04.021Z,87.07
2023-03-22T06:06:30.871Z,87.04
2023-03-22T06:09:07.303Z,87.04
2023-03-22T06:11:42.460Z,87.36
2023-03-22T06:14:09.506Z,87.28
2023-03-22T06:16:36.535Z,87.30
2023-03-22T06:19:03.055Z,87.18
2023-03-22T06:21:29.771Z,87.14
2023-03-22T06:23:56.344Z,87.11
2023-03-22T06:26:22.785Z,87.26
2023-03-22T06:28:50.436Z,87.28
2023-03-22T06:31:17.320Z,87.30
2023-03-22T06:33:44.881Z,87.25
2023-03-22T06:36:11.472Z,87.25
2023-03-22T06:38:38.080Z,87.33
2023-03-22T06:41:05.226Z,87.37
2023-03-22T06:43:32.123Z,87.30
2023-03-22T06:45:58.615Z,87.28
2023-03-22T06:48:28.640Z,87.28
2023-03-22T06:50:55.142Z,87.32
2023-03-22T06:53:21.994Z,87.12
2023-03-22T06:55:49.040Z,87.12
2023-03-22T06:58:22.983Z,86.89
2023-03-22T07:00:49.750Z,86.94
2023-03-22T07:03:19.665Z,86.99
2023-03-22T07:05:46.592Z,86.82
2023-03-22T07:08:13.527Z,86.89
2023-03-22T07:10:40.629Z,86.84
2023-03-22T07:13:07.217Z,86.69
2023-03-22T07:15:34.438Z,86.74
2023-03-22T07:18:02.203Z,86.73
2023-03-22T07:20:29.178Z,86.78
2023-03-22T07:22:55.680Z,86.80
2023-03-22T07:25:22.356Z,86.79
2023-03-22T07:27:48.918Z,86.59
2023-03-22T07:30:15.962Z,86.34
2023-03-22T07:32:42.841Z,86.12
2023-03-22T07:35:09.369Z,85.85
2023-03-22T07:37:35.844Z,85.67
2023-03-22T07:40:04.234Z,85.58
2023-03-22T07:42:31.422Z,85.50
2023-03-22T07:44:58.706Z,85.42
2023-03-22T07:47:40.030Z,85.13
2023-03-22T07:50:08.982Z,85.03
2023-03-22T07:52:36.444Z,85.02
2023-03-22T07:55:04.297Z,84.92
2023-03-22T07:57:30.955Z,84.74
2023-03-22T08:00:02.917Z,84.61
2023-03-22T08:02:30.597Z,84.35
2023-03-22T08:04:57.293Z,84.12
2023-03-22T08:07:24.601Z,83.96
2023-03-22T08:09:51.731Z,83.83
2023-03-22T08:12:18.824Z,83.70
2023-03-22T08:14:49.827Z,83.60
2023-03-22T08:17:17.533Z,83.48
2023-03-22T08:19:57.929Z,83.30
2023-03-22T08:22:29.063Z,83.16
2023-03-22T08:24:55.933Z,83.16
2023-03-22T08:27:22.337Z,83.04
2023-03-22T08:29:48.853Z,82.70
2023-03-22T08:32:16.270Z,82.65
2023-03-22T08:34:43.842Z,82.56
2023-03-22T08:37:12.064Z,82.48
2023-03-22T08:39:39.185Z,82.30
2023-03-22T08:42:05.711Z,82.14
2023-03-22T08:44:32.139Z,81.92
2023-03-22T08:46:58.938Z,81.85
2023-03-22T08:49:26.570Z,81.79
2023-03-22T08:51:53.383Z,81.79
2023-03-22T08:54:20.162Z,81.72
2023-03-22T08:56:47.645Z,81.73
2023-03-22T08:59:14.155Z,81.61
2023-03-22T09:01:40.730Z,81.50
2023-03-22T09:04:10.199Z,81.50
2023-03-22T09:06:38.096Z,81.26
2023-03-22T09:09:04.551Z,81.02
2023-03-22T09:11:30.980Z,80.81
2023-03-22T09:13:57.384Z,80.71
2023-03-22T09:16:24.021Z,80.83
2023-03-22T09:18:50.985Z,80.92
2023-03-22T09:21:17.901Z,80.84
2023-03-22T09:23:47.398Z,80.79
2023-03-22T09:26:14.475Z,80.65
2023-03-22T09:28:41.071Z,80.69
2023-03-22T09:31:09.871Z,80.80
2023-03-22T09:33:38.330Z,80.62
2023-03-22T09:36:05.946Z,80.80
2023-03-22T09:38:35.816Z,80.88
2023-03-22T09:41:06.815Z,80.79
2023-03-22T09:43:37.311Z,80.81
2023-03-22T09:46:10.207Z,80.73
2023-03-22T09:48:40.242Z,80.65
2023-03-22T09:51:18.775Z,80.61
2023-03-22T09:53:45.251Z,80.47
2023-03-22T09:56:22.432Z,80.37
2023-03-22T09:59:10.662Z,80.27
2023-03-22T10:01:48.001Z,80.02
2023-03-22T10:04:35.724Z,79.93
2023-03-22T10:07:20.715Z,79.65
2023-03-22T10:10:12.031Z,79.54
2023-03-22T10:12:53.152Z,79.31
2023-03-22T10:15:28.168Z,79.18
2023-03-22T10:17:57.526Z,78.87
2023-03-22T10:20:33.711Z,78.65
2023-03-22T10:23:03.408Z,78.21
2023-03-22T10:25:39.463Z,77.90
2023-03-22T10:28:16.903Z,77.60
2023-03-22T10:30:50.371Z,77.07
2023-03-22T10:33:36.420Z,76.81
2023-03-22T10:36:05.549Z,76.63
2023-03-22T10:38:36.886Z,76.13
2023-03-22T10:41:04.878Z,75.82
2023-03-22T10:43:40.715Z,75.07
2023-03-22T10:46:14.948Z,74.47
2023-03-22T10:48:45.071Z,73.48
2023-03-22T10:51:22.599Z,72.53
2023-03-22T10:53:53.145Z,72.08
2023-03-22T10:56:20.609Z,71.91
2023-03-22T10:58:49.094Z,71.75
2023-03-22T11:01:25.122Z,71.47
2023-03-22T11:03:56.759Z,71.32
2023-03-22T11:06:26.594Z,70.72
2023-03-22T11:08:57.773Z,70.06
2023-03-22T11:11:36.039Z,70.64
2023-03-22T11:14:07.732Z,70.53
2023-03-22T11:16:51.995Z,70.30
2023-03-22T11:19:23.143Z,69.47
2023-03-22T11:21:50.982Z,69.46
2023-03-22T11:24:18.375Z,69.62
2023-03-22T11:27:20.908Z,69.09
2023-03-22T11:29:53.372Z,68.57
2023-03-22T11:32:29.526Z,67.86
2023-03-22T11:35:04.783Z,67.42
2023-03-22T11:37:31.223Z,66.99
2023-03-22T11:40:01.288Z,66.71
2023-03-22T11:42:28.480Z,66.58
2023-03-22T11:44:56.574Z,66.32
2023-03-22T11:47:26.511Z,65.37
2023-03-22T11:49:56.607Z,65.56
2023-03-22T11:52:26.218Z,65.66
2023-03-22T11:54:54.639Z,65.18
2023-03-22T11:57:25.795Z,64.65
2023-03-22T12:00:17.581Z,64.23
2023-03-22T12:02:55.120Z,64.17
2023-03-22T12:05:26.675Z,62.23
2023-03-22T12:08:16.705Z,63.68
2023-03-22T12:10:50.477Z,63.95
2023-03-22T12:14:02.486Z,64.18
2023-03-22T12:16:36.160Z,64.74
2023-03-22T12:19:50.873Z,64.60
2023-03-22T12:22:20.698Z,64.11
2023-03-22T12:24:47.618Z,64.61
2023-03-22T12:27:24.083Z,64.66
2023-03-22T12:29:59.357Z,64.57
2023-03-22T12:32:35.554Z,63.98
2023-03-22T12:35:16.651Z,63.32
2023-03-22T12:37:57.604Z,63.29
2023-03-22T12:40:33.769Z,63.89
2023-03-22T12:43:06.054Z,63.20
2023-03-22T12:45:40.092Z,63.18
2023-03-22T12:48:13.993Z,63.00
2023-03-22T12:50:56.780Z,63.06
2023-03-22T12:53:30.546Z,62.90
2023-03-22T12:55:59.283Z,62.42
2023-03-22T12:58:26.768Z,61.88
2023-03-22T13:00:58.005Z,61.69
2023-03-22T13:03:36.443Z,60.95
2023-03-22T13:06:32.539Z,60.96
2023-03-22T13:09:01.974Z,61.51
2023-03-22T13:11:28.457Z,61.29
2023-03-22T13:13:55.384Z,60.94
2023-03-22T13:16:40.428Z,61.39
2023-03-22T13:19:26.105Z,61.21
2023-03-22T13:22:14.200Z,61.31
2023-03-22T13:25:04.068Z,61.51
2023-03-22T13:27:53.335Z,61.49
2023-03-22T13:30:21.076Z,62.11
2023-03-22T13:32:53.861Z,61.87
2023-03-22T13:35:27.330Z,62.46
2023-03-22T13:38:02.253Z,62.23
2023-03-22T13:40:37.466Z,62.08
2023-03-22T13:43:22.996Z,62.75
2023-03-22T13:46:17.060Z,62.94
2023-03-22T13:48:46.860Z,62.42
2023-03-22T13:51:16.897Z,63.06
2023-03-22T13:54:04.244Z,63.35
2023-03-22T13:57:01.922Z,63.30
2023-03-22T14:00:14.790Z,62.83
2023-03-22T14:02:51.595Z,63.24
2023-03-22T14:05:26.149Z,63.17
2023-03-22T14:07:59.656Z,63.26
2023-03-22T14:10:47.386Z,63.11
2023-03-22T14:13:54.529Z,63.25
2023-03-22T14:17:02.476Z,63.05
2023-03-22T14:19:38.992Z,63.19
